createdAt,value
2019-03-20T00:00:44.666Z,71.59
2019-03-20T00:01:44.658Z,73.69
2019-03-20T00:02:44.648Z,69.40
2019-03-20T00:03:44.883Z,73.30
2019-03-20T00:04:49.676Z,77.00
2019-03-20T00:05:44.611Z,75.90
2019-03-20T00:06:44.610Z,75.90
2019-03-20T00:07:44.591Z,68.40
2019-03-20T00:08:44.581Z,70.40
2019-03-20T00:09:44.668Z,70.69
2019-03-20T00:10:44.556Z,71.80
2019-03-20T00:11:44.545Z,64.80
2019-03-20T00:12:44.541Z,65.50
2019-03-20T00:13:44.525Z,69.90
2019-03-20T00:14:44.617Z,69.90
2019-03-20T00:15:44.503Z,64.40
2019-03-20T00:16:44.493Z,61.20
2019-03-20T00:17:44.481Z,62.40
2019-03-20T00:18:44.473Z,72.00
2019-03-20T00:19:44.458Z,67.00
2019-03-20T00:20:44.602Z,62.90
2019-03-20T00:21:44.442Z,62.79
2019-03-20T00:22:44.431Z,63.09
2019-03-20T00:23:44.418Z,72.30
2019-03-20T00:24:44.407Z,64.30
2019-03-20T00:25:44.400Z,80.30
2019-03-20T00:26:44.487Z,62.79
2019-03-20T00:27:44.374Z,72.69
2019-03-20T00:28:44.369Z,74.69
2019-03-20T00:29:44.357Z,73.59
2019-03-20T00:30:44.346Z,73.80
2019-03-20T00:31:44.332Z,73.59
2019-03-20T00:32:44.371Z,74.69
2019-03-20T00:33:44.310Z,81.69
2019-03-20T00:34:44.299Z,97.00
2019-03-20T00:35:44.287Z,82.59
2019-03-20T00:36:44.280Z,84.00
2019-03-20T00:37:44.268Z,87.19
2019-03-20T00:38:44.457Z,80.59
2019-03-20T00:39:44.250Z,96.19
2019-03-20T00:40:44.238Z,101.00
2019-03-20T00:41:44.226Z,105.00
2019-03-20T00:42:44.215Z,117.19
2019-03-20T00:43:44.208Z,99.59
2019-03-20T00:44:44.300Z,100.90
2019-03-20T00:45:44.185Z,114.30
2019-03-20T00:46:44.172Z,118.40
2019-03-20T00:47:44.159Z,117.50
2019-03-20T00:48:44.149Z,121.19
2019-03-20T00:49:44.139Z,119.19
2019-03-20T00:50:44.177Z,115.90
2019-03-20T00:51:44.120Z,112.30
2019-03-20T00:52:44.105Z,123.19
2019-03-20T00:53:44.095Z,119.00
2019-03-20T00:54:44.083Z,116.30
2019-03-20T00:55:44.077Z,114.40
2019-03-20T00:56:44.317Z,116.80
2019-03-20T00:57:44.055Z,126.19
2019-03-20T00:58:44.042Z,115.19
2019-03-20T00:59:44.036Z,121.00
2019-03-20T01:00:44.025Z,115.30
2019-03-20T01:01:44.012Z,111.80
2019-03-20T01:02:44.102Z,106.19
2019-03-20T01:03:43.992Z,100.00
2019-03-20T01:04:43.978Z,99.30
2019-03-20T01:05:43.971Z,108.59
2019-03-20T01:06:43.956Z,115.90
2019-03-20T01:07:43.995Z,118.69
2019-03-20T01:08:43.935Z,108.80
2019-03-20T01:09:43.927Z,106.40
2019-03-20T01:10:43.911Z,101.90
2019-03-20T01:11:43.903Z,94.59
2019-03-20T01:12:44.090Z,106.09
2019-03-20T01:13:43.899Z,80.69
2019-03-20T01:14:43.880Z,87.90
2019-03-20T01:15:43.857Z,91.19
2019-03-20T01:16:43.848Z,104.00
2019-03-20T01:17:43.834Z,97.00
2019-03-20T01:18:43.881Z,104.69
2019-03-20T01:19:43.816Z,78.40
2019-03-20T01:20:43.806Z,78.30
2019-03-20T01:21:43.795Z,81.00
2019-03-20T01:22:43.783Z,80.90
2019-03-20T01:23:43.776Z,82.30
2019-03-20T01:24:43.814Z,76.09
2019-03-20T01:25:43.754Z,70.40
2019-03-20T01:26:43.742Z,83.80
2019-03-20T01:27:43.731Z,81.59
2019-03-20T01:28:43.721Z,77.59
2019-03-20T01:29:43.710Z,81.50
2019-03-20T01:30:43.847Z,80.30
2019-03-20T01:31:43.693Z,82.50
2019-03-20T01:32:43.674Z,79.90
2019-03-20T01:33:43.666Z,78.30
2019-03-20T01:34:43.665Z,75.80
2019-03-20T01:35:43.689Z,76.40
2019-03-20T01:36:43.635Z,82.30
2019-03-20T01:37:43.624Z,86.19
2019-03-20T01:38:43.610Z,74.40
2019-03-20T01:39:43.600Z,82.80
2019-03-20T01:40:43.592Z,77.40
2019-03-20T01:41:43.638Z,91.30
2019-03-20T01:42:43.570Z,89.59
2019-03-20T01:43:43.563Z,97.19
2019-03-20T01:44:43.549Z,88.09
2019-03-20T01:45:43.536Z,81.80
2019-03-20T01:46:43.524Z,83.80
2019-03-20T01:47:43.716Z,88.30
2019-03-20T01:48:43.511Z,92.00
2019-03-20T01:49:43.496Z,91.80
2019-03-20T01:50:43.478Z,107.19
2019-03-20T01:51:43.482Z,109.00
2019-03-20T01:52:43.458Z,107.30
2019-03-20T01:53:43.498Z,116.90
2019-03-20T01:54:43.439Z,119.00
2019-03-20T01:55:43.432Z,114.00
2019-03-20T01:56:43.422Z,128.50
2019-03-20T01:57:43.410Z,117.50
2019-03-20T01:58:43.392Z,128.30
2019-03-20T01:59:43.437Z,114.09
2019-03-20T02:00:43.372Z,131.39
2019-03-20T02:01:43.364Z,127.69
2019-03-20T02:02:43.353Z,123.80
2019-03-20T02:03:43.346Z,117.90
2019-03-20T02:04:43.388Z,104.90
2019-03-20T02:05:43.323Z,127.00
2019-03-20T02:06:43.311Z,117.00
2019-03-20T02:07:43.294Z,125.00
2019-03-20T02:08:43.294Z,119.50
2019-03-20T02:09:43.278Z,109.69
2019-03-20T02:10:43.317Z,100.30
2019-03-20T02:11:43.255Z,104.50
2019-03-20T02:12:43.250Z,113.90
2019-03-20T02:13:43.231Z,121.00
2019-03-20T02:14:43.225Z,127.40
2019-03-20T02:15:43.661Z,114.50
2019-03-20T02:16:43.219Z,114.59
2019-03-20T02:17:43.197Z,115.30
2019-03-20T02:18:43.178Z,120.59
2019-03-20T02:19:43.169Z,123.09
2019-03-20T02:20:43.161Z,121.09
2019-03-20T02:21:43.195Z,129.00
2019-03-20T02:22:43.136Z,117.30
2019-03-20T02:23:43.125Z,127.00
2019-03-20T02:24:43.111Z,111.69
2019-03-20T02:25:43.104Z,113.40
2019-03-20T02:26:43.091Z,112.00
2019-03-20T02:27:43.177Z,110.90
2019-03-20T02:28:43.074Z,102.19
2019-03-20T02:29:43.061Z,106.40
2019-03-20T02:30:43.053Z,103.69
2019-03-20T02:31:43.037Z,88.59
2019-03-20T02:32:43.026Z,94.40
2019-03-20T02:33:43.174Z,88.00
2019-03-20T02:34:43.003Z,93.90
2019-03-20T02:35:51.270Z,88.40
2019-03-20T02:37:07.803Z,92.40
2019-03-20T02:38:07.791Z,92.80
2019-03-20T02:39:07.832Z,96.50
2019-03-20T02:40:07.785Z,97.30
2019-03-20T02:41:07.774Z,95.00
2019-03-20T02:42:07.756Z,99.69
2019-03-20T02:43:07.831Z,95.50
2019-03-20T02:44:07.727Z,89.50
2019-03-20T02:45:07.774Z,100.50
2019-03-20T02:46:07.707Z,103.30
2019-03-20T02:47:07.696Z,105.09
2019-03-20T02:48:07.690Z,102.09
2019-03-20T02:49:07.676Z,95.40
2019-03-20T02:50:07.666Z,97.09
2019-03-20T02:51:07.806Z,99.50
2019-03-20T02:52:07.640Z,102.59
2019-03-20T02:53:07.638Z,103.59
2019-03-20T02:54:07.628Z,96.90
2019-03-20T02:55:07.610Z,105.40
2019-03-20T02:56:07.603Z,98.59
2019-03-20T02:57:07.689Z,99.40
2019-03-20T02:58:07.580Z,103.90
2019-03-20T02:59:07.568Z,91.19
2019-03-20T03:00:07.556Z,87.59
2019-03-20T03:01:07.543Z,93.59
2019-03-20T03:02:07.528Z,98.30
2019-03-20T03:03:07.620Z,98.50
2019-03-20T03:04:07.513Z,101.00
2019-03-20T03:05:07.499Z,92.80
2019-03-20T03:06:07.733Z,88.80
2019-03-20T03:07:07.482Z,97.09
2019-03-20T03:08:07.483Z,100.09
2019-03-20T03:09:07.611Z,97.19
2019-03-20T03:10:07.445Z,84.50
2019-03-20T03:11:07.439Z,82.09
2019-03-20T03:12:07.426Z,89.30
2019-03-20T03:13:07.416Z,83.09
2019-03-20T03:14:07.408Z,84.69
2019-03-20T03:15:07.449Z,80.50
2019-03-20T03:16:07.381Z,83.40
2019-03-20T03:17:07.375Z,89.09
2019-03-20T03:18:07.372Z,74.59
2019-03-20T03:19:07.353Z,77.69
2019-03-20T03:20:07.343Z,74.09
2019-03-20T03:21:07.436Z,86.00
2019-03-20T03:22:07.317Z,86.80
2019-03-20T03:23:07.313Z,77.09
2019-03-20T03:24:07.301Z,73.69
2019-03-20T03:25:07.288Z,76.50
2019-03-20T03:26:07.279Z,84.90
2019-03-20T03:27:07.421Z,80.30
2019-03-20T03:28:07.261Z,89.69
2019-03-20T03:29:07.251Z,84.59
2019-03-20T03:30:07.238Z,84.30
2019-03-20T03:31:07.260Z,89.50
2019-03-20T03:32:07.216Z,85.00
2019-03-20T03:33:07.260Z,80.80
2019-03-20T03:34:07.205Z,81.59
2019-03-20T03:35:07.185Z,83.50
2019-03-20T03:36:20.244Z,82.90
2019-03-20T03:37:31.984Z,94.50
2019-03-20T03:38:32.022Z,96.30
2019-03-20T03:39:31.961Z,92.09
2019-03-20T03:40:31.965Z,88.09
2019-03-20T03:41:31.953Z,94.50
2019-03-20T03:42:31.925Z,96.80
2019-03-20T03:43:31.917Z,91.19
2019-03-20T03:44:32.062Z,84.40
2019-03-20T03:45:31.899Z,88.00
2019-03-20T03:46:31.888Z,84.50
2019-03-20T03:47:31.874Z,83.00
2019-03-20T03:48:31.865Z,75.30
2019-03-20T03:49:31.857Z,81.40
2019-03-20T03:50:31.900Z,82.40
2019-03-20T03:51:31.836Z,78.90
2019-03-20T03:52:31.825Z,79.59
2019-03-20T03:53:31.813Z,80.50
2019-03-20T03:54:31.802Z,78.69
2019-03-20T03:55:31.785Z,82.00
2019-03-20T03:56:31.877Z,72.09
2019-03-20T03:57:31.786Z,76.00
2019-03-20T03:58:32.907Z,77.69
2019-03-20T03:59:31.749Z,70.90
2019-03-20T04:00:31.738Z,73.00
2019-03-20T04:01:31.762Z,77.50
2019-03-20T04:02:31.867Z,70.80
2019-03-20T04:03:31.710Z,81.09
2019-03-20T04:04:31.691Z,72.90
2019-03-20T04:05:31.688Z,79.19
2019-03-20T04:06:35.826Z,81.09
2019-03-20T04:07:31.657Z,77.19
2019-03-20T04:08:31.699Z,78.80
2019-03-20T04:09:31.638Z,67.30
2019-03-20T04:10:31.637Z,75.69
2019-03-20T04:11:31.632Z,70.40
2019-03-20T04:12:31.610Z,69.19
2019-03-20T04:13:31.596Z,67.90
2019-03-20T04:14:31.692Z,72.00
2019-03-20T04:15:31.579Z,73.69
2019-03-20T04:16:31.570Z,70.40
2019-03-20T04:17:31.557Z,65.09
2019-03-20T04:18:31.569Z,73.90
2019-03-20T04:19:31.533Z,74.09
2019-03-20T04:20:31.585Z,77.30
2019-03-20T04:21:31.514Z,69.59
2019-03-20T04:22:31.506Z,65.69
2019-03-20T04:23:31.496Z,70.80
2019-03-20T04:24:31.483Z,66.30
2019-03-20T04:25:31.469Z,69.19
2019-03-20T04:26:31.507Z,69.90
2019-03-20T04:27:31.446Z,64.40
2019-03-20T04:28:31.444Z,75.90
2019-03-20T04:29:31.428Z,70.19
2019-03-20T04:30:31.434Z,61.50
2019-03-20T04:31:31.411Z,64.50
2019-03-20T04:32:31.451Z,60.90
2019-03-20T04:33:31.384Z,66.09
2019-03-20T04:34:31.377Z,67.30
2019-03-20T04:35:31.360Z,70.30
2019-03-20T04:36:31.357Z,63.20
2019-03-20T04:37:31.344Z,66.00
2019-03-20T04:38:31.440Z,71.19
2019-03-20T04:39:31.322Z,61.09
2019-03-20T04:40:31.313Z,68.90
2019-03-20T04:41:31.301Z,69.90
2019-03-20T04:42:31.293Z,70.69
2019-03-20T04:43:31.293Z,63.09
2019-03-20T04:44:31.322Z,74.09
2019-03-20T04:45:31.260Z,70.80
2019-03-20T04:46:31.245Z,74.50
2019-03-20T04:47:31.240Z,65.50
2019-03-20T04:48:31.227Z,70.59
2019-03-20T04:49:31.215Z,76.50
2019-03-20T04:50:31.256Z,66.59
2019-03-20T04:51:31.196Z,74.80
2019-03-20T04:52:31.183Z,72.59
2019-03-20T04:53:31.172Z,68.40
2019-03-20T04:54:31.160Z,60.20
2019-03-20T04:56:31.293Z,70.00
2019-03-20T04:57:31.130Z,69.80
2019-03-20T04:58:31.119Z,67.09
2019-03-20T04:59:31.109Z,64.90
2019-03-20T05:00:31.092Z,75.50
2019-03-20T05:01:31.089Z,70.40
2019-03-20T05:02:31.176Z,71.19
2019-03-20T05:03:31.064Z,69.90
2019-03-20T05:04:31.052Z,65.90
2019-03-20T05:05:31.043Z,71.00
2019-03-20T05:06:31.032Z,63.90
2019-03-20T05:07:31.021Z,69.69
2019-03-20T05:08:31.059Z,66.50
2019-03-20T05:09:31.002Z,77.59
2019-03-20T05:10:30.988Z,59.00
2019-03-20T05:11:30.979Z,60.79
2019-03-20T05:12:30.973Z,62.40
2019-03-20T05:13:30.954Z,61.70
2019-03-20T05:14:31.151Z,60.79
2019-03-20T05:15:30.935Z,65.59
2019-03-20T05:16:30.928Z,61.90
2019-03-20T05:17:30.917Z,63.50
2019-03-20T05:18:30.910Z,66.59
2019-03-20T05:19:30.891Z,60.09
2019-03-20T05:20:30.986Z,69.69
2019-03-20T05:21:30.876Z,64.80
2019-03-20T05:22:30.860Z,66.69
2019-03-20T05:23:30.851Z,67.69
2019-03-20T05:24:30.898Z,69.90
2019-03-20T05:25:30.829Z,72.40
2019-03-20T05:26:30.921Z,64.40
2019-03-20T05:27:30.803Z,66.40
2019-03-20T05:28:30.801Z,60.09
2019-03-20T05:29:30.790Z,74.59
2019-03-20T05:30:30.778Z,58.70
2019-03-20T05:31:30.771Z,57.00
2019-03-20T05:32:31.010Z,62.40
2019-03-20T05:33:30.748Z,64.50
2019-03-20T05:34:30.734Z,62.79
2019-03-20T05:35:30.729Z,56.79
2019-03-20T05:36:30.713Z,52.50
2019-03-20T05:37:30.706Z,53.70
2019-03-20T05:38:30.750Z,51.90
2019-03-20T05:39:30.687Z,56.70
2019-03-20T05:40:30.680Z,53.90
2019-03-20T05:41:30.666Z,51.90
2019-03-20T05:42:30.652Z,56.29
2019-03-20T05:43:30.640Z,53.79
2019-03-20T05:44:30.734Z,59.29
2019-03-20T05:45:30.618Z,55.50
2019-03-20T05:46:30.612Z,53.00
2019-03-20T05:47:30.597Z,55.20
2019-03-20T05:48:30.594Z,56.70
2019-03-20T05:49:30.579Z,55.70
2019-03-20T05:50:31.018Z,54.50
2019-03-20T05:51:30.559Z,51.09
2019-03-20T05:52:30.551Z,60.79
2019-03-20T05:53:30.540Z,56.00
2019-03-20T05:54:30.524Z,52.00
2019-03-20T05:55:30.514Z,50.00
2019-03-20T05:56:30.554Z,59.70
2019-03-20T05:57:30.492Z,54.00
2019-03-20T05:58:30.483Z,65.40
2019-03-20T05:59:30.473Z,55.00
2019-03-20T06:00:30.464Z,56.50
2019-03-20T06:01:30.456Z,63.09
2019-03-20T06:02:30.545Z,56.79
2019-03-20T06:03:30.430Z,51.59
2019-03-20T06:04:30.419Z,66.30
2019-03-20T06:05:30.414Z,50.40
2019-03-20T06:06:30.397Z,55.00
2019-03-20T06:07:30.395Z,53.79
2019-03-20T06:08:31.351Z,51.20
2019-03-20T06:09:30.370Z,50.70
2019-03-20T06:10:30.355Z,56.50
2019-03-20T06:11:30.344Z,57.29
2019-03-20T06:12:30.342Z,50.90
2019-03-20T06:13:30.322Z,51.59
2019-03-20T06:14:30.363Z,47.29
2019-03-20T06:15:30.297Z,48.40
2019-03-20T06:16:30.291Z,47.20
2019-03-20T06:17:30.282Z,41.50
2019-03-20T06:18:30.273Z,53.50
2019-03-20T06:19:30.261Z,47.50
2019-03-20T06:20:30.297Z,58.70
2019-03-20T06:21:30.235Z,58.40
2019-03-20T06:22:30.228Z,50.09
2019-03-20T06:23:30.216Z,57.29
2019-03-20T06:24:30.204Z,46.20
2019-03-20T06:25:30.198Z,49.79
2019-03-20T06:26:30.335Z,59.00
2019-03-20T06:27:30.172Z,47.09
2019-03-20T06:28:30.157Z,49.70
2019-03-20T06:29:30.147Z,50.50
2019-03-20T06:30:30.139Z,49.90
2019-03-20T06:31:30.126Z,56.00
2019-03-20T06:32:30.170Z,49.00
2019-03-20T06:33:30.111Z,47.70
2019-03-20T06:34:30.095Z,49.50
2019-03-20T06:35:30.085Z,42.70
2019-03-20T06:36:30.071Z,50.29
2019-03-20T06:37:32.815Z,46.59
2019-03-20T06:38:30.102Z,42.59
2019-03-20T06:39:30.038Z,47.09
2019-03-20T06:40:30.032Z,43.59
2019-03-20T06:41:30.020Z,52.59
2019-03-20T06:42:30.010Z,43.40
2019-03-20T06:43:29.996Z,52.79
2019-03-20T06:44:30.138Z,51.59
2019-03-20T06:45:29.976Z,48.29
2019-03-20T06:46:29.970Z,53.00
2019-03-20T06:47:29.958Z,50.70
2019-03-20T06:48:29.941Z,55.59
2019-03-20T06:49:29.930Z,45.70
2019-03-20T06:50:30.019Z,56.50
2019-03-20T06:51:29.907Z,44.70
2019-03-20T06:52:29.897Z,44.29
2019-03-20T06:53:29.908Z,52.00
2019-03-20T06:54:29.875Z,43.00
2019-03-20T06:55:29.866Z,52.79
2019-03-20T06:56:29.901Z,54.29
2019-03-20T06:57:29.842Z,42.90
2019-03-20T06:58:29.825Z,57.00
2019-03-20T06:59:29.815Z,46.79
2019-03-20T07:00:29.806Z,56.90
2019-03-20T07:01:29.796Z,49.20
2019-03-20T07:02:29.986Z,51.50
2019-03-20T07:03:29.781Z,54.00
2019-03-20T07:04:29.767Z,53.79
2019-03-20T07:05:29.749Z,46.90
2019-03-20T07:06:29.744Z,52.50
2019-03-20T07:07:29.730Z,46.00
2019-03-20T07:08:29.780Z,53.59
2019-03-20T07:09:29.710Z,43.00
2019-03-20T07:10:29.700Z,48.09
2019-03-20T07:11:29.681Z,48.00
2019-03-20T07:12:29.671Z,41.09
2019-03-20T07:13:29.661Z,42.79
2019-03-20T07:14:29.707Z,44.70
2019-03-20T07:15:29.645Z,43.00
2019-03-20T07:16:29.629Z,55.40
2019-03-20T07:17:29.619Z,49.20
2019-03-20T07:18:29.608Z,41.09
2019-03-20T07:19:29.599Z,43.90
2019-03-20T07:20:29.739Z,52.50
2019-03-20T07:21:29.577Z,47.29
2019-03-20T07:22:29.566Z,45.59
2019-03-20T07:23:29.554Z,39.90
2019-03-20T07:24:29.548Z,48.90
2019-03-20T07:25:29.533Z,41.20
2019-03-20T07:26:29.573Z,42.09
2019-03-20T07:27:29.512Z,48.79
2019-03-20T07:28:29.500Z,42.50
2019-03-20T07:29:29.491Z,43.09
2019-03-20T07:30:29.475Z,50.90
2019-03-20T07:31:29.470Z,52.90
2019-03-20T07:32:30.104Z,43.40
2019-03-20T07:33:29.450Z,34.20
2019-03-20T07:34:29.439Z,43.40
2019-03-20T07:35:29.426Z,47.59
2019-03-20T07:36:29.418Z,44.09
2019-03-20T07:37:29.403Z,48.59
2019-03-20T07:38:29.544Z,44.09
2019-03-20T07:39:29.384Z,43.70
2019-03-20T07:40:29.373Z,55.00
2019-03-20T07:41:29.364Z,44.09
2019-03-20T07:42:29.350Z,45.79
2019-03-20T07:43:29.341Z,46.09
2019-03-20T07:44:29.383Z,53.00
2019-03-20T07:45:29.323Z,51.70
2019-03-20T07:46:29.310Z,42.20
2019-03-20T07:47:29.300Z,47.59
2019-03-20T07:48:29.289Z,45.20
2019-03-20T07:49:29.377Z,48.90
2019-03-20T07:50:29.267Z,53.70
2019-03-20T07:51:29.251Z,51.00
2019-03-20T07:52:29.246Z,47.59
2019-03-20T07:53:29.236Z,46.50
2019-03-20T07:54:29.222Z,44.00
2019-03-20T07:55:29.466Z,43.79
2019-03-20T07:56:29.203Z,44.40
2019-03-20T07:57:29.195Z,43.29
2019-03-20T07:58:29.188Z,47.40
2019-03-20T07:59:29.177Z,50.79
2019-03-20T08:00:29.162Z,47.40
2019-03-20T08:01:29.250Z,49.00
2019-03-20T08:02:29.143Z,40.70
2019-03-20T08:03:29.130Z,43.40
2019-03-20T08:04:29.122Z,50.50
2019-03-20T08:05:29.751Z,47.00
2019-03-20T08:06:29.097Z,46.90
2019-03-20T08:07:29.137Z,45.40
2019-03-20T08:08:29.071Z,53.00
2019-03-20T08:09:29.081Z,55.20
2019-03-20T08:10:29.052Z,45.29
2019-03-20T08:11:29.050Z,56.90
2019-03-20T08:12:29.036Z,51.70
2019-03-20T08:13:29.168Z,43.79
2019-03-20T08:14:29.006Z,74.00
2019-03-20T08:15:29.000Z,53.90
2019-03-20T08:16:28.991Z,53.50
2019-03-20T08:17:28.975Z,55.59
2019-03-20T08:18:28.968Z,61.40
2019-03-20T08:19:29.053Z,54.40
2019-03-20T08:20:28.941Z,51.09
2019-03-20T08:21:28.930Z,60.90
2019-03-20T08:22:28.924Z,61.79
2019-03-20T08:23:28.911Z,73.50
2019-03-20T08:24:28.901Z,60.90
2019-03-20T08:25:28.944Z,58.40
2019-03-20T08:26:28.879Z,64.90
2019-03-20T08:27:28.869Z,61.70
2019-03-20T08:28:28.851Z,63.50
2019-03-20T08:29:28.840Z,68.00
2019-03-20T08:30:28.834Z,54.40
2019-03-20T08:31:29.024Z,60.40
2019-03-20T08:32:28.810Z,65.59
2019-03-20T08:33:28.796Z,66.00
2019-03-20T08:34:28.794Z,60.59
2019-03-20T08:35:28.780Z,43.79
2019-03-20T08:36:28.791Z,35.70
2019-03-20T08:37:28.803Z,42.29
2019-03-20T08:38:28.747Z,22.60
2019-03-20T08:39:28.739Z,20.29
2019-03-20T08:40:28.722Z,21.89
2019-03-20T08:41:28.713Z,18.70
2019-03-20T08:42:28.702Z,24.10
2019-03-20T08:43:28.743Z,14.10
2019-03-20T08:44:28.682Z,12.50
2019-03-20T08:45:28.670Z,14.89
2019-03-20T08:46:28.657Z,12.89
2019-03-20T08:47:28.651Z,9.50
2019-03-20T08:48:28.635Z,14.00
2019-03-20T08:49:28.979Z,13.19
2019-03-20T08:50:28.618Z,10.80
2019-03-20T08:51:28.603Z,8.30
2019-03-20T08:52:28.592Z,9.69
2019-03-20T08:53:28.581Z,8.89
2019-03-20T08:54:28.575Z,12.60
2019-03-20T08:55:28.611Z,21.20
2019-03-20T08:56:28.548Z,51.50
2019-03-20T08:57:28.538Z,38.70
2019-03-20T08:58:28.528Z,45.70
2019-03-20T08:59:28.520Z,57.09
2019-03-20T09:00:28.506Z,67.80
2019-03-20T09:01:29.190Z,67.69
2019-03-20T09:02:28.484Z,69.90
2019-03-20T09:03:28.474Z,75.50
2019-03-20T09:04:28.465Z,61.20
2019-03-20T09:05:28.449Z,84.40
2019-03-20T09:06:28.439Z,104.90
2019-03-20T09:07:28.577Z,76.50
2019-03-20T09:08:29.633Z,75.19
2019-03-20T09:09:28.409Z,53.70
2019-03-20T09:10:28.399Z,62.59
2019-03-20T09:11:28.389Z,51.29
2019-03-20T09:12:28.376Z,41.59
2019-03-20T09:13:28.414Z,43.40
2019-03-20T09:14:28.354Z,46.59
2019-03-20T09:15:28.345Z,48.00
2019-03-20T09:16:28.332Z,45.70
2019-03-20T09:17:28.322Z,57.90
2019-03-20T09:18:28.309Z,49.59
2019-03-20T09:19:28.350Z,41.50
2019-03-20T09:20:28.290Z,45.70
2019-03-20T09:21:28.281Z,44.29
2019-03-20T09:22:28.270Z,47.20
2019-03-20T09:23:28.255Z,32.20
2019-03-20T09:24:28.347Z,45.79
2019-03-20T09:25:28.234Z,37.50
2019-03-20T09:26:28.227Z,32.90
2019-03-20T09:27:28.216Z,48.40
2019-03-20T09:28:28.201Z,40.29
2019-03-20T09:29:36.152Z,32.00
2019-03-20T09:30:53.051Z,44.40
2019-03-20T09:31:53.038Z,45.50
2019-03-20T09:32:53.028Z,52.09
2019-03-20T09:33:53.032Z,53.59
2019-03-20T09:34:53.007Z,53.20
2019-03-20T09:35:53.046Z,56.90
2019-03-20T09:36:52.980Z,52.79
2019-03-20T09:37:52.990Z,44.29
2019-03-20T09:38:52.964Z,45.50
2019-03-20T09:39:52.951Z,58.70
2019-03-20T09:40:52.956Z,44.59
2019-03-20T09:41:52.986Z,36.79
2019-03-20T09:42:52.928Z,44.79
2019-03-20T09:43:52.909Z,40.40
2019-03-20T09:44:52.902Z,31.20
2019-03-20T09:45:52.892Z,41.40
2019-03-20T09:46:52.881Z,33.00
2019-03-20T09:47:52.921Z,29.00
2019-03-20T09:48:52.862Z,25.60
2019-03-20T09:49:52.846Z,27.60
2019-03-20T09:50:52.842Z,25.60
2019-03-20T09:51:52.829Z,30.60
2019-03-20T09:52:52.811Z,35.40
2019-03-20T09:53:53.061Z,24.50
2019-03-20T09:54:52.798Z,26.89
2019-03-20T09:55:52.788Z,19.79
2019-03-20T09:56:52.782Z,28.20
2019-03-20T09:57:52.766Z,34.40
2019-03-20T09:58:52.756Z,37.00
2019-03-20T09:59:52.845Z,45.20
2019-03-20T10:00:52.740Z,51.90
2019-03-20T10:01:52.734Z,49.79
2019-03-20T10:02:52.713Z,61.20
2019-03-20T10:03:52.705Z,44.09
2019-03-20T10:04:52.691Z,69.59
2019-03-20T10:05:52.756Z,68.59
2019-03-20T10:06:52.676Z,45.59
2019-03-20T10:07:52.663Z,59.79
2019-03-20T10:08:54.425Z,51.59
2019-03-20T10:09:52.639Z,53.29
2019-03-20T10:10:52.625Z,70.90
2019-03-20T10:11:52.868Z,62.70
2019-03-20T10:12:52.607Z,57.90
2019-03-20T10:13:52.592Z,63.40
2019-03-20T10:14:52.583Z,83.90
2019-03-20T10:15:52.576Z,71.00
2019-03-20T10:16:52.562Z,74.09
2019-03-20T10:17:52.660Z,88.09
2019-03-20T10:18:52.546Z,81.90
2019-03-20T10:19:52.534Z,74.30
2019-03-20T10:20:52.525Z,72.69
2019-03-20T10:21:52.514Z,82.19
2019-03-20T10:22:52.498Z,68.09
2019-03-20T10:23:52.593Z,68.19
2019-03-20T10:24:52.482Z,94.59
2019-03-20T10:25:52.470Z,77.40
2019-03-20T10:26:52.461Z,76.09
2019-03-20T10:27:52.452Z,51.29
2019-03-20T10:28:52.435Z,69.09
2019-03-20T10:29:52.580Z,65.00
2019-03-20T10:30:52.418Z,36.50
2019-03-20T10:31:52.409Z,39.29
2019-03-20T10:32:52.398Z,34.09
2019-03-20T10:33:52.393Z,24.79
2019-03-20T10:34:52.373Z,25.70
2019-03-20T10:35:52.416Z,23.00
2019-03-20T10:36:52.359Z,29.29
2019-03-20T10:37:52.346Z,23.29
2019-03-20T10:38:52.453Z,34.29
2019-03-20T10:39:52.321Z,16.39
2019-03-20T10:40:52.313Z,28.89
2019-03-20T10:41:52.353Z,21.79
2019-03-20T10:42:52.303Z,20.20
2019-03-20T10:43:52.496Z,17.39
2019-03-20T10:44:52.273Z,19.60
2019-03-20T10:45:52.264Z,27.20
2019-03-20T10:46:52.248Z,40.40
2019-03-20T10:47:53.234Z,30.79
2019-03-20T10:48:52.231Z,21.79
2019-03-20T10:49:52.226Z,21.50
2019-03-20T10:50:52.209Z,20.70
2019-03-20T10:51:52.195Z,24.70
2019-03-20T10:52:52.193Z,20.79
2019-03-20T10:53:52.281Z,15.00
2019-03-20T10:54:52.164Z,14.00
2019-03-20T10:55:52.154Z,25.29
2019-03-20T10:56:52.144Z,31.20
2019-03-20T10:57:52.138Z,22.70
2019-03-20T10:58:52.123Z,18.50
2019-03-20T10:59:52.210Z,23.20
2019-03-20T11:00:52.113Z,23.60
2019-03-20T11:01:52.091Z,27.60
2019-03-20T11:02:52.083Z,34.29
2019-03-20T11:03:52.068Z,29.00
2019-03-20T11:04:52.058Z,17.20
2019-03-20T11:05:52.200Z,18.39
2019-03-20T11:06:52.037Z,12.60
2019-03-20T11:07:52.032Z,17.89
2019-03-20T11:08:52.032Z,25.89
2019-03-20T11:09:52.023Z,20.20
2019-03-20T11:10:51.996Z,17.79
2019-03-20T11:11:52.036Z,13.89
2019-03-20T11:12:51.973Z,26.29
2019-03-20T11:13:51.966Z,15.00
2019-03-20T11:14:51.965Z,18.79
2019-03-20T11:15:51.947Z,22.50
2019-03-20T11:16:51.933Z,20.89
2019-03-20T11:17:51.994Z,15.19
2019-03-20T11:18:51.920Z,17.89
2019-03-20T11:19:51.899Z,15.30
2019-03-20T11:20:53.594Z,19.10
2019-03-20T11:21:51.884Z,12.00
2019-03-20T11:22:51.874Z,17.20
2019-03-20T11:23:52.064Z,20.70
2019-03-20T11:24:51.849Z,15.60
2019-03-20T11:25:51.840Z,12.69
2019-03-20T11:26:51.829Z,10.50
2019-03-20T11:27:51.822Z,13.30
2019-03-20T11:28:51.801Z,10.19
2019-03-20T11:29:51.902Z,11.19
2019-03-20T11:30:51.784Z,11.19
2019-03-20T11:31:51.776Z,9.69
2019-03-20T11:32:51.765Z,9.00
2019-03-20T11:33:51.757Z,8.39
2019-03-20T11:34:51.742Z,10.69
2019-03-20T11:35:51.783Z,16.39
2019-03-20T11:36:51.721Z,17.70
2019-03-20T11:37:51.711Z,18.20
2019-03-20T11:38:51.699Z,13.00
2019-03-20T11:39:52.747Z,8.39
2019-03-20T11:40:51.681Z,9.69
2019-03-20T11:41:51.919Z,10.00
2019-03-20T11:42:51.657Z,9.10
2019-03-20T11:43:51.649Z,11.00
2019-03-20T11:44:51.641Z,11.19
2019-03-20T11:45:51.625Z,9.80
2019-03-20T11:46:51.623Z,11.80
2019-03-20T11:47:51.705Z,11.00
2019-03-20T11:48:51.589Z,10.10
2019-03-20T11:49:51.584Z,9.69
2019-03-20T11:50:51.573Z,9.00
2019-03-20T11:51:51.567Z,11.50
2019-03-20T11:52:51.550Z,11.10
2019-03-20T11:53:51.640Z,11.30
2019-03-20T11:54:51.529Z,12.89
2019-03-20T11:55:51.523Z,11.39
2019-03-20T11:56:51.508Z,7.30
2019-03-20T11:57:51.494Z,14.00
2019-03-20T11:58:51.481Z,10.60
2019-03-20T11:59:51.632Z,21.39
2019-03-20T12:00:51.466Z,16.29
2019-03-20T12:01:51.455Z,14.19
2019-03-20T12:02:51.443Z,10.89
2019-03-20T12:03:51.433Z,17.00
2019-03-20T12:04:53.912Z,13.19
2019-03-20T12:05:51.463Z,16.10
2019-03-20T12:06:51.395Z,9.30
2019-03-20T12:07:51.387Z,17.00
2019-03-20T12:08:51.379Z,16.20
2019-03-20T12:09:51.376Z,16.89
2019-03-20T12:10:51.355Z,19.29
2019-03-20T12:11:51.396Z,22.39
2019-03-20T12:12:51.333Z,14.30
2019-03-20T12:13:51.328Z,16.10
2019-03-20T12:14:51.315Z,20.20
2019-03-20T12:15:51.305Z,17.10
2019-03-20T12:16:51.297Z,174.00
2019-03-20T12:17:51.480Z,14.60
2019-03-20T12:18:51.271Z,11.30
2019-03-20T12:19:51.262Z,17.10
2019-03-20T12:20:51.248Z,26.29
2019-03-20T12:21:51.240Z,19.39
2019-03-20T12:22:51.230Z,17.79
2019-03-20T12:23:51.268Z,19.29
2019-03-20T12:24:51.208Z,13.89
2019-03-20T12:25:51.198Z,12.89
2019-03-20T12:26:51.187Z,11.30
2019-03-20T12:27:51.179Z,10.60
2019-03-20T12:28:51.165Z,8.89
2019-03-20T12:29:51.260Z,14.80
2019-03-20T12:30:51.200Z,12.39
2019-03-20T12:31:51.128Z,12.39
2019-03-20T12:32:51.118Z,9.80
2019-03-20T12:33:51.121Z,20.79
2019-03-20T12:34:51.152Z,12.00
2019-03-20T12:35:51.093Z,23.29
2019-03-20T12:36:51.081Z,8.69
2019-03-20T12:37:51.071Z,10.89
2019-03-20T12:38:51.060Z,7.80
2019-03-20T12:39:53.351Z,11.80
2019-03-20T12:40:51.141Z,11.60
2019-03-20T12:41:51.027Z,9.39
2019-03-20T12:42:51.014Z,8.30
2019-03-20T12:43:51.015Z,11.69
2019-03-20T12:44:50.991Z,25.89
2019-03-20T12:45:50.985Z,18.10
2019-03-20T12:46:51.023Z,13.80
2019-03-20T12:47:50.962Z,12.10
2019-03-20T12:48:50.954Z,17.10
2019-03-20T12:49:50.941Z,10.80
2019-03-20T12:50:50.931Z,12.00
2019-03-20T12:51:50.918Z,14.00
2019-03-20T12:52:50.960Z,17.89